Latest Coastal Weather Observations for Cape Borda

IDS60701

Issued at 4:01 pm CDT Sunday 26 February 2017 (issued every 10 minutes, with the page automatically refreshed every 10 minutes)

About coastal observations | Map of coastal stations | Coastal observations for SA | Marine services | Other Formats
Station Details ID: 022823 Name: CAPE BORDA Lat: -35.75 Lon: 136.60 Height: 158.0 m
Data from the previous 72 hours. | See also: Recent months at Cape Borda
Date/Time
CDT
Temp
°C
Wind Pressure Rain since
9am
mm
Weather Cloud Vis
km
Sea
Height
m
Swell
Dir  Spd
kts
Gust
kts
hPa Trend Height
m
Period
s
Dir
26/04:00pm 20.3 WNW 7 9 1018.9 - 0.0 - - - - - - -
26/03:30pm 19.8 W 8 11 1019.1 - 0.0 - - - - - - -
26/03:00pm 19.6 W 10 13 1019.1 R 0.0 Fine Clear 15 <0.5 3.6 7 SW
26/02:30pm 19.8 W 9 11 1019.5 - 0.0 - - - - - - -
26/02:00pm 19.5 NNW 6 10 1019.7 - 0.0 - - - - - - -
26/01:30pm 20.2 N 10 13 1019.7 - 0.0 - - - - - - -
26/01:00pm 20.8 NNE 9 13 1019.8 - 0.0 - - - - - - -
26/12:30pm 20.2 NNE 9 13 1020.2 - 0.0 - - - - - - -
26/12:00pm 19.2 NNE 9 13 1020.0 - 0.0 - - - - - - -
26/11:30am 19.7 NNE 8 11 1020.6 - 0.0 - - - - - - -
26/11:00am 19.1 NNE 8 11 1020.6 - 0.0 - - - - - - -
26/10:30am 19.0 E 7 11 1021.0 - 0.0 - - - - - - -
26/10:00am 17.7 ESE 9 11 1021.3 - 0.0 - - - - - - -
26/09:30am 16.5 ESE 9 13 1021.5 - 0.0 - - - - - - -
26/09:00am 14.9 ESE 11 15 1021.1 F 0.0 Fine Clear 15 <0.5 4.9 7 SW
26/08:30am 13.3 ESE 10 13 1021.4 - 0.0 - - - - - - -
26/08:00am 11.8 ESE 10 13 1021.2 - 0.0 - - - - - - -
26/07:30am 11.0 ESE 11 14 1021.0 - 0.0 - - - - - - -
26/07:00am 10.9 ESE 11 15 1021.1 - 0.0 - - - - - - -
26/06:30am 10.9 ESE 11 14 1021.1 - 0.0 - - - - - - -
26/06:00am 10.7 ESE 10 13 1020.4 - 0.0 - - - - - - -
26/05:30am 11.0 ESE 11 13 1020.6 - 0.0 - - - - - - -
26/05:00am 11.0 ESE 10 13 1020.6 - 0.0 - - - - - - -
26/04:30am 11.3 ESE 9 13 1020.5 - 0.0 - - - - - - -
26/04:00am 11.4 ESE 9 15 1020.8 - 0.0 - - - - - - -
26/03:30am 11.5 ESE 9 11 1021.1 - 0.0 - - - - - - -
26/03:00am 11.4 E 6 8 1021.2 - 0.0 - - - - - - -
26/02:30am 11.8 E 8 11 1021.7 - 0.0 - - - - - - -
26/02:00am 12.1 ENE 5 7 1021.9 - 0.0 - - - - - - -
26/01:30am 12.5 E 9 14 1022.2 - 0.0 - - - - - - -
26/01:00am 12.5 ESE 7 9 1022.5 - 0.0 - - - - - - -
26/12:30am 12.4 E 7 10 1022.8 - 0.0 - - - - - - -
26/12:00am 12.7 ESE 5 12 1022.7 - 0.0 - - - - - - -
 
Date/Time
CDT
Temp
°C
Wind Pressure Rain since
9am
mm
Weather Cloud Vis
km
Sea
Height
m
Swell
Dir  Spd
kts
Gust
kts
hPa Trend Height
m
Period
s
Dir
25/11:30pm 13.1 ESE 8 13 1023.2 - 0.0 - - - - - - -
25/11:00pm 13.2 ESE 9 15 1023.3 - 0.0 - - - - - - -
25/10:30pm 13.3 ESE 10 16 1023.3 - 0.0 - - - - - - -
25/10:00pm 13.2 ESE 9 15 1023.4 - 0.0 - - - - - - -
25/09:30pm 13.5 SE 9 14 1023.5 - 0.0 - - - - - - -
25/09:00pm 13.9 SE 9 14 1023.2 - 0.0 - - - - - - -
25/08:30pm 14.5 SE 13 19 1023.3 - 0.0 - - - - - - -
25/08:00pm 15.3 SE 11 15 1023.4 - 0.0 - - - - - - -
25/07:30pm 16.3 SE 13 19 1023.3 - 0.0 - - - - - - -
25/07:00pm 17.4 SE 13 18 1023.3 - 0.0 - - - - - - -
25/06:30pm 18.7 SE 11 17 1023.4 - 0.0 - - - - - - -
25/06:00pm 19.1 SE 12 17 1023.2 - 0.0 - - - - - - -
25/05:30pm 20.1 SE 13 18 1023.5 - 0.0 - - - - - - -
25/05:00pm 20.6 SE 13 18 1023.6 - 0.0 - - - - - - -
25/04:30pm 22.1 SE 14 18 1023.7 - 0.0 - - - - - - -
25/04:00pm 22.2 SE 14 20 1023.7 - 0.0 - - - - - - -
25/03:30pm 22.0 SE 11 17 1024.0 - 0.0 - - - - - - -
25/03:00pm 22.3 SSE 11 15 1023.9 F 0.0 Fine Mostly clear 28 <0.5 5.6 10 SW
25/02:30pm 21.8 SSE 11 16 1024.7 - 0.0 - - - - - - -
25/02:00pm 21.4 SE 10 18 1025.1 - 0.0 - - - - - - -
25/01:30pm 21.9 ESE 9 15 1025.4 - 0.0 - - - - - - -
25/01:00pm 21.3 SE 8 13 1025.7 - 0.0 - - - - - - -
25/12:30pm 20.8 SE 8 14 1026.0 - 0.0 - - - - - - -
25/12:00pm 19.5 SE 8 13 1026.0 - 0.0 - - - - - - -
25/11:30am 18.7 SSE 13 17 1026.6 - 0.0 - - - - - - -
25/11:00am 18.1 SE 10 15 1026.7 - 0.0 - - - - - - -
25/10:30am 19.2 SSE 8 13 1026.7 - 0.0 - - - - - - -
25/10:00am 17.9 SE 10 13 1026.9 - 0.0 - - - - - - -
25/09:30am 16.8 SSE 10 14 1026.9 - 0.0 - - - - - - -
25/09:00am 15.9 SSE 9 14 1026.6 F 0.0 Distant precip. Mostly cloudy 28 <0.5 5.4 9 SW
25/08:30am 14.7 SE 8 11 1026.7 - 0.0 - - - - - - -
25/08:00am 14.4 SSE 7 11 1026.6 - 0.0 - - - - - - -
25/07:30am 13.5 SE 6 8 1026.4 - 0.0 - - - - - - -
25/07:00am 12.8 SE 5 6 1026.1 - 0.0 - - - - - - -
25/06:30am 14.3 SE 4 6 1026.1 - 0.0 - - - - - - -
25/06:00am 14.4 SSE 5 6 1025.8 - 0.0 - - - - - - -
25/05:30am 14.3 SSE 6 9 1026.0 - 0.0 - - - - - - -
25/05:00am 14.0 SSE 6 8 1025.8 - 0.0 - - - - - - -
25/04:30am 14.0 SSE 8 11 1025.7 - 0.0 - - - - - - -
25/04:00am 13.5 SSE 8 11 1025.8 - 0.0 - - - - - - -
25/03:30am 13.1 SSE 8 10 1025.7 - 0.0 - - - - - - -
25/03:00am 12.2 SSE 7 8 1025.6 - 0.0 - - - - - - -
25/02:30am 12.6 SSE 7 8 1026.3 - 0.0 - - - - - - -
25/02:00am 12.5 SE 8 9 1026.5 - 0.0 - - - - - - -
25/01:30am 12.9 SSE 8 11 1026.6 - 0.0 - - - - - - -
25/01:00am 13.6 SSE 8 11 1027.0 - 0.0 - - - - - - -
25/12:30am 13.0 SSE 7 9 1027.2 - 0.0 - - - - - - -
25/12:00am 11.9 SSE 7 9 1027.1 - 0.0 - - - - - - -
 
Date/Time
CDT
Temp
°C
Wind Pressure Rain since
9am
mm
Weather Cloud Vis
km
Sea
Height
m
Swell
Dir  Spd
kts
Gust
kts
hPa Trend Height
m
Period
s
Dir
24/11:30pm 12.2 SSE 8 9 1027.6 - 0.0 - - - - - - -
24/11:00pm 12.5 SSE 8 9 1027.9 - 0.0 - - - - - - -
24/10:30pm 12.4 SSE 8 9 1027.9 - 0.0 - - - - - - -
24/10:00pm 12.5 SSE 8 10 1027.9 - 0.0 - - - - - - -
24/09:30pm 12.8 SSE 7 9 1027.8 - 0.0 - - - - - - -
24/09:00pm 13.4 SSE 7 9 1027.4 - 0.0 - - - - - - -
24/08:30pm 14.7 SSE 9 12 1027.5 - 0.0 - - - - - - -
24/08:00pm 16.2 SE 9 14 1027.2 - 0.0 - - - - - - -
24/07:30pm 16.5 SSE 11 17 1027.1 - 0.0 - - - - - - -
24/07:00pm 16.4 SSE 15 19 1026.9 - 0.0 - - - - - - -
24/06:30pm 16.7 SSE 12 18 1026.9 - 0.0 - - - - - - -
24/06:00pm 17.8 SSE 12 17 1026.5 - 0.0 - - - - - - -
24/05:30pm 18.1 SE 13 17 1026.7 - 0.0 - - - - - - -
24/05:00pm 18.0 S 14 19 1026.6 - 0.0 - - - - - - -
24/04:30pm 18.7 S 13 18 1026.6 - 0.0 - - - - - - -
24/04:00pm 19.1 SSE 11 17 1026.7 - 0.0 - - - - - - -
24/03:30pm 18.7 SSE 13 18 1026.9 - 0.0 - - - - - - -
24/03:00pm 18.3 SSE 13 18 1027.0 R 0.0 Fine Cloudy 20 <0.5 5.9 10 SW
24/02:30pm 18.2 SSE 12 16 1027.3 - 0.0 - - - - - - -
24/02:00pm 17.6 SSE 11 14 1027.5 - 0.0 - - - - - - -
24/01:30pm 18.2 SSE 11 15 1027.6 - 0.0 - - - - - - -
24/01:00pm 18.1 SSE 11 16 1027.7 - 0.0 - - - - - - -
24/12:30pm 18.2 S 11 15 1027.8 - 0.0 - - - - - - -
24/12:00pm 18.2 SSE 9 12 1027.8 - 0.0 - - - - - - -
24/11:30am 17.8 S 11 13 1028.0 - 0.0 - - - - - - -
24/11:00am 17.5 S 10 13 1028.1 - 0.0 - - - - - - -
24/10:30am 16.9 SSE 8 11 1028.1 - 0.0 - - - - - - -
24/10:00am 16.5 SSE 7 9 1027.9 - 0.0 - - - - - - -
24/09:30am 16.4 SSE 6 8 1027.7 - 0.0 - - - - - - -
24/09:00am 15.7 S 5 7 1027.3 R 0.0 Fine Cloudy 18 <0.5 5.0 9 SW
24/08:30am 15.0 S 4 5 1027.2 - 0.0 - - - - - - -
24/08:00am 14.4 SSE 5 6 1027.0 - 0.0 - - - - - - -
24/07:30am 14.0 S 6 7 1026.5 - 0.0 - - - - - - -
24/07:00am 13.6 SSE 6 7 1026.2 - 0.0 - - - - - - -
24/06:30am 13.3 SSE 7 9 1026.0 - 0.0 - - - - - - -
24/06:00am 13.1 S 7 8 1025.5 - 0.0 - - - - - - -
24/05:30am 12.8 SSE 7 8 1025.4 - 0.0 - - - - - - -
24/05:00am 12.7 S 7 10 1025.1 - 0.0 - - - - - - -
24/04:30am 13.3 S 7 8 1025.0 - 0.0 - - - - - - -
24/04:00am 13.9 S 7 9 1024.9 - 0.0 - - - - - - -
24/03:30am 13.7 S 7 9 1024.9 - 0.0 - - - - - - -
24/03:00am 14.1 S 7 9 1024.5 - 0.0 - - - - - - -
24/02:30am 13.5 S 7 8 1025.0 - 0.0 - - - - - - -
24/02:00am 12.9 S 9 10 1025.2 - 0.0 - - - - - - -
24/01:30am 13.7 S 9 14 1025.3 - 0.0 - - - - - - -
24/01:00am 13.1 S 9 13 1025.3 - 0.0 - - - - - - -
24/12:30am 13.5 S 9 11 1025.5 - 0.0 - - - - - - -
24/12:00am 13.4 S 9 11 1025.1 - 0.0 - - - - - - -
 
Date/Time
CDT
Temp
°C
Wind Pressure Rain since
9am
mm
Weather Cloud Vis
km
Sea
Height
m
Swell
Dir  Spd
kts
Gust
kts
hPa Trend Height
m
Period
s
Dir
23/11:30pm 13.8 S 9 11 1025.2 - 0.0 - - - - - - -
23/11:00pm 13.7 S 9 12 1025.2 - 0.0 - - - - - - -
23/10:30pm 14.5 S 10 14 1025.2 - 0.0 - - - - - - -
23/10:00pm 14.5 SSW 8 11 1025.0 - 0.0 - - - - - - -
23/09:30pm 14.8 SSW 9 14 1024.7 - 0.0 - - - - - - -
23/09:00pm 15.1 SSW 9 15 1024.1 - 0.0 - - - - - - -
23/08:30pm 15.3 SSW 9 11 1024.0 - 0.0 - - - - - - -
23/08:00pm 15.7 SSW 9 13 1023.6 - 0.0 - - - - - - -
23/07:30pm 16.6 SSW 10 15 1023.3 - 0.0 - - - - - - -
23/07:00pm 17.7 SSW 9 14 1023.0 - 0.0 - - - - - - -
23/06:30pm 18.3 SSW 11 15 1022.8 - 0.0 - - - - - - -
23/06:00pm 18.0 SW 11 15 1022.4 - 0.0 - - - - - - -
23/05:30pm 17.9 SSW 9 13 1022.4 - 0.0 - - - - - - -
23/05:00pm 18.6 SW 12 16 1022.2 - 0.0 - - - - - - -
23/04:30pm 18.7 SW 11 16 1022.1 - 0.0 - - - - - - -

Other Formats:

Comma delimited format used in spreadsheet applications
http://www.bom.gov.au/fwo/IDS60701/IDS60701.95805.axf

JavaScript Object Notation format (JSON) in row-major order
http://www.bom.gov.au/fwo/IDS60701/IDS60701.95805.json